createdAt,value
2022-09-23T00:01:00.798Z,1.92
2022-09-23T00:03:29.177Z,2.15
2022-09-23T00:06:00.560Z,3.03
2022-09-23T00:08:27.362Z,3.03
2022-09-23T00:10:54.221Z,3.28
2022-09-23T00:13:20.638Z,2.78
2022-09-23T00:15:47.100Z,2.55
2022-09-23T00:18:13.728Z,2.00
2022-09-23T00:20:40.463Z,2.35
2022-09-23T00:23:07.096Z,2.33
2022-09-23T00:25:33.935Z,2.65
2022-09-23T00:28:00.452Z,3.22
2022-09-23T00:30:27.201Z,2.30
2022-09-23T00:32:53.818Z,2.00
2022-09-23T00:35:20.326Z,2.10
2022-09-23T00:37:46.783Z,2.00
2022-09-23T00:40:13.708Z,2.45
2022-09-23T00:42:58.316Z,2.40
2022-09-23T00:45:24.798Z,2.15
2022-09-23T00:47:55.000Z,3.15
2022-09-23T00:50:21.371Z,2.00
2022-09-23T00:52:50.680Z,2.15
2022-09-23T00:55:23.934Z,2.15
2022-09-23T00:57:54.489Z,3.50
2022-09-23T01:00:22.510Z,1.95
2022-09-23T01:02:49.467Z,2.28
2022-09-23T01:05:17.481Z,2.13
2022-09-23T01:07:44.945Z,2.28
2022-09-23T01:10:13.695Z,2.15
2022-09-23T01:13:25.025Z,2.75
2022-09-23T01:16:19.363Z,2.10
2022-09-23T01:19:01.801Z,2.50
2022-09-23T01:21:57.004Z,2.13
2022-09-23T01:24:46.609Z,2.10
2022-09-23T01:27:39.451Z,2.17
2022-09-23T01:30:29.751Z,2.10
2022-09-23T01:32:59.196Z,2.38
2022-09-23T01:35:40.619Z,2.30
2022-09-23T01:38:36.252Z,2.40
2022-09-23T01:41:08.845Z,2.58
2022-09-23T01:44:02.200Z,2.30
2022-09-23T01:46:38.087Z,2.50
2022-09-23T01:49:16.427Z,3.00
2022-09-23T01:51:48.758Z,2.55
2022-09-23T01:54:22.588Z,2.53
2022-09-23T01:56:54.625Z,2.90
2022-09-23T01:59:28.982Z,2.55
2022-09-23T02:02:17.163Z,3.00
2022-09-23T02:04:54.097Z,2.90
2022-09-23T02:07:35.303Z,4.60
2022-09-23T02:10:22.963Z,2.70
2022-09-23T02:12:54.007Z,2.55
2022-09-23T02:15:28.358Z,2.17
2022-09-23T02:18:08.724Z,2.30
2022-09-23T02:20:39.738Z,2.25
2022-09-23T02:23:13.049Z,2.22
2022-09-23T02:25:58.070Z,2.65
2022-09-23T02:28:30.808Z,2.20
2022-09-23T02:31:16.345Z,2.22
2022-09-23T02:34:07.691Z,2.30
2022-09-23T02:37:04.037Z,2.22
2022-09-23T02:39:39.194Z,2.13
2022-09-23T02:42:12.688Z,2.00
2022-09-23T02:44:40.516Z,2.90
2022-09-23T02:47:07.596Z,2.33
2022-09-23T02:49:36.448Z,2.55
2022-09-23T02:52:05.536Z,2.40
2022-09-23T02:54:36.055Z,2.08
2022-09-23T02:57:05.721Z,2.42
2022-09-23T02:59:34.100Z,2.83
2022-09-23T03:02:29.169Z,2.30
2022-09-23T03:05:09.873Z,2.30
2022-09-23T03:07:55.962Z,2.92
2022-09-23T03:10:41.929Z,2.78
2022-09-23T03:13:39.534Z,2.15
2022-09-23T03:16:21.660Z,2.22
2022-09-23T03:19:06.960Z,2.00
2022-09-23T03:21:55.488Z,2.70
2022-09-23T03:24:24.752Z,2.58
2022-09-23T03:26:53.905Z,2.00
2022-09-23T03:29:23.159Z,2.42
2022-09-23T03:31:49.682Z,2.50
2022-09-23T03:34:22.818Z,3.30
2022-09-23T03:37:01.493Z,2.50
2022-09-23T03:39:48.659Z,2.15
2022-09-23T03:42:30.001Z,2.25
2022-09-23T03:44:57.641Z,2.42
2022-09-23T03:47:26.533Z,2.30
2022-09-23T03:49:53.936Z,2.80
2022-09-23T03:52:25.474Z,2.35
2022-09-23T03:54:52.265Z,2.92
2022-09-23T03:57:21.920Z,2.85
2022-09-23T03:59:51.732Z,2.17
2022-09-23T04:02:20.039Z,2.55
2022-09-23T04:04:46.763Z,2.47
2022-09-23T04:07:13.887Z,2.30
2022-09-23T04:09:40.831Z,2.65
2022-09-23T04:12:08.365Z,2.65
2022-09-23T04:14:35.276Z,3.17
2022-09-23T04:17:01.860Z,3.00
2022-09-23T04:19:28.430Z,2.80
2022-09-23T04:21:54.884Z,2.83
2022-09-23T04:24:22.036Z,2.55
2022-09-23T04:26:56.599Z,2.80
2022-09-23T04:29:24.430Z,2.38
2022-09-23T04:31:51.912Z,2.50
2022-09-23T04:34:19.376Z,3.10
2022-09-23T04:36:47.209Z,2.40
2022-09-23T04:39:17.436Z,2.53
2022-09-23T04:41:45.505Z,3.20
2022-09-23T04:44:13.414Z,2.78
2022-09-23T04:46:41.697Z,3.28
2022-09-23T04:49:08.359Z,3.30
2022-09-23T04:51:35.349Z,2.63
2022-09-23T04:54:01.940Z,2.67
2022-09-23T04:56:32.550Z,2.90
2022-09-23T04:59:01.552Z,2.47
2022-09-23T05:01:31.080Z,2.40
2022-09-23T05:04:02.748Z,2.42
2022-09-23T05:06:31.417Z,2.75
2022-09-23T05:08:59.185Z,2.72
2022-09-23T05:11:26.596Z,2.45
2022-09-23T05:13:54.270Z,2.33
2022-09-23T05:16:25.572Z,2.35
2022-09-23T05:18:52.413Z,2.53
2022-09-23T05:21:21.838Z,2.65
2022-09-23T05:23:55.342Z,2.85
2022-09-23T05:26:25.239Z,2.85
2022-09-23T05:28:52.615Z,2.42
2022-09-23T05:31:21.576Z,2.80
2022-09-23T05:33:59.812Z,2.92
2022-09-23T05:36:27.799Z,2.67
2022-09-23T05:38:56.575Z,3.13
2022-09-23T05:41:24.669Z,2.70
2022-09-23T05:43:55.158Z,3.00
2022-09-23T05:46:25.607Z,3.33
2022-09-23T05:48:52.107Z,2.65
2022-09-23T05:51:21.024Z,3.17
2022-09-23T05:53:48.514Z,2.78
2022-09-23T05:56:17.612Z,2.72
2022-09-23T05:58:44.719Z,3.22
2022-09-23T06:01:24.761Z,2.90
2022-09-23T06:03:56.240Z,2.88
2022-09-23T06:06:28.948Z,2.72
2022-09-23T06:08:56.095Z,3.05
2022-09-23T06:11:22.696Z,2.50
2022-09-23T06:13:50.229Z,2.75
2022-09-23T06:16:16.756Z,2.78
2022-09-23T06:18:45.692Z,2.35
2022-09-23T06:21:17.029Z,2.55
2022-09-23T06:23:44.709Z,2.55
2022-09-23T06:26:13.968Z,2.78
2022-09-23T06:28:42.785Z,2.72
2022-09-23T06:31:15.586Z,2.78
2022-09-23T06:33:43.394Z,2.75
2022-09-23T06:36:10.692Z,2.53
2022-09-23T06:38:44.657Z,2.38
2022-09-23T06:41:12.144Z,2.75
2022-09-23T06:43:38.928Z,2.78
2022-09-23T06:46:07.322Z,3.17
2022-09-23T06:48:35.323Z,3.05
2022-09-23T06:51:04.091Z,2.85
2022-09-23T06:53:34.747Z,2.58
2022-09-23T06:56:03.699Z,2.70
2022-09-23T06:58:32.048Z,2.63
2022-09-23T07:01:07.039Z,2.47
2022-09-23T07:03:34.500Z,2.58
2022-09-23T07:06:01.477Z,2.40
2022-09-23T07:08:30.061Z,3.22
2022-09-23T07:11:02.289Z,2.85
2022-09-23T07:13:30.228Z,2.83
2022-09-23T07:15:58.914Z,3.40
2022-09-23T07:18:26.345Z,3.45
2022-09-23T07:20:53.469Z,3.08
2022-09-23T07:23:20.480Z,2.75
2022-09-23T07:25:50.239Z,2.90
2022-09-23T07:28:17.326Z,2.90
2022-09-23T07:30:56.128Z,2.75
2022-09-23T07:33:32.196Z,3.05
2022-09-23T07:35:59.603Z,2.88
2022-09-23T07:38:29.903Z,2.50
2022-09-23T07:41:08.843Z,2.78
2022-09-23T07:43:35.739Z,2.92
2022-09-23T07:46:07.024Z,3.03
2022-09-23T07:48:35.373Z,2.53
2022-09-23T07:51:36.116Z,2.53
2022-09-23T07:54:03.509Z,2.80
2022-09-23T07:56:30.765Z,2.70
2022-09-23T07:59:00.657Z,3.30
2022-09-23T08:01:29.464Z,4.43
2022-09-23T08:04:01.255Z,3.45
2022-09-23T08:06:28.126Z,3.08
2022-09-23T08:08:58.119Z,3.75
2022-09-23T08:11:26.522Z,2.90
2022-09-23T08:13:53.881Z,2.72
2022-09-23T08:16:21.735Z,2.60
2022-09-23T08:18:48.369Z,2.30
2022-09-23T08:21:20.301Z,3.20
2022-09-23T08:23:47.084Z,2.75
2022-09-23T08:26:20.241Z,2.97
2022-09-23T08:28:47.966Z,3.10
2022-09-23T08:31:14.586Z,2.83
2022-09-23T08:33:41.190Z,2.83
2022-09-23T08:36:08.087Z,2.75
2022-09-23T08:38:34.649Z,2.97
2022-09-23T08:41:27.811Z,3.20
2022-09-23T08:43:59.049Z,3.15
2022-09-23T08:46:32.138Z,3.20
2022-09-23T08:49:01.362Z,3.65
2022-09-23T08:51:40.017Z,2.70
2022-09-23T08:54:11.208Z,3.03
2022-09-23T08:56:39.093Z,3.95
2022-09-23T08:59:19.309Z,2.78
2022-09-23T09:01:53.524Z,3.20
2022-09-23T09:04:54.412Z,2.33
2022-09-23T09:07:37.413Z,3.38
2022-09-23T09:10:11.704Z,2.80
2022-09-23T09:12:47.549Z,3.30
2022-09-23T09:15:24.292Z,2.83
2022-09-23T09:18:11.376Z,3.05
2022-09-23T09:20:50.931Z,4.63
2022-09-23T09:23:26.248Z,4.03
2022-09-23T09:25:57.246Z,2.40
2022-09-23T09:28:31.122Z,2.53
2022-09-23T09:31:02.410Z,3.45
2022-09-23T09:33:44.642Z,3.58
2022-09-23T09:36:24.910Z,3.28
2022-09-23T09:38:53.239Z,3.20
2022-09-23T09:41:24.514Z,3.05
2022-09-23T09:44:00.668Z,2.95
2022-09-23T09:46:55.063Z,3.00
2022-09-23T09:49:40.361Z,2.70
2022-09-23T09:52:26.088Z,2.88
2022-09-23T09:54:52.849Z,3.08
2022-09-23T09:57:33.574Z,3.45
2022-09-23T10:00:26.285Z,3.00
2022-09-23T10:02:55.483Z,3.03
2022-09-23T10:05:34.085Z,2.60
2022-09-23T10:08:21.920Z,2.90
2022-09-23T10:10:54.887Z,3.78
2022-09-23T10:13:27.458Z,2.90
2022-09-23T10:15:54.909Z,3.83
2022-09-23T10:18:51.238Z,3.30
2022-09-23T10:21:26.871Z,3.30
2022-09-23T10:24:01.578Z,3.50
2022-09-23T10:26:34.523Z,2.55
2022-09-23T10:29:03.865Z,3.15
2022-09-23T10:31:35.680Z,2.65
2022-09-23T10:34:20.667Z,3.20
2022-09-23T10:37:01.566Z,2.92
2022-09-23T10:39:47.189Z,2.53
2022-09-23T10:42:47.140Z,2.20
2022-09-23T10:45:43.300Z,2.35
2022-09-23T10:48:38.412Z,2.28
2022-09-23T10:51:14.475Z,3.72
2022-09-23T10:53:58.797Z,2.15
2022-09-23T10:56:48.327Z,1.83
2022-09-23T10:59:33.506Z,2.42
2022-09-23T11:02:39.466Z,1.90
2022-09-23T11:05:43.417Z,2.40
2022-09-23T11:08:18.213Z,1.85
2022-09-23T11:11:03.970Z,2.10
2022-09-23T11:14:01.001Z,2.42
2022-09-23T11:19:45.837Z,1.73
2022-09-23T11:22:21.460Z,1.90
2022-09-23T11:25:27.377Z,2.00
2022-09-23T11:28:29.377Z,2.00
2022-09-23T11:31:24.096Z,2.05
2022-09-23T11:34:32.098Z,2.47
2022-09-23T11:37:20.487Z,2.10
2022-09-23T11:39:54.895Z,1.95
2022-09-23T11:42:26.946Z,1.92
2022-09-23T11:45:00.333Z,1.85
2022-09-23T11:47:43.077Z,1.80
2022-09-23T11:50:18.925Z,2.28
2022-09-23T11:52:52.275Z,2.85
2022-09-23T11:55:24.332Z,1.80
2022-09-23T11:57:54.310Z,2.00
2022-09-23T12:00:27.908Z,2.13
2022-09-23T12:03:18.293Z,1.90
2022-09-23T12:05:48.170Z,1.80
2022-09-23T12:08:30.429Z,2.15
2022-09-23T12:10:56.902Z,2.20
2022-09-23T12:13:48.322Z,2.20
2022-09-23T12:16:50.648Z,1.88
2022-09-23T12:19:38.682Z,2.20
2022-09-23T12:22:29.566Z,2.40
2022-09-23T12:25:20.690Z,2.50
2022-09-23T12:27:52.073Z,1.98
2022-09-23T12:30:34.368Z,2.30
2022-09-23T12:33:24.863Z,2.97
2022-09-23T12:36:02.034Z,2.20
2022-09-23T12:38:38.264Z,1.95
2022-09-23T12:41:24.537Z,2.20
2022-09-23T12:43:56.182Z,2.40
2022-09-23T12:46:25.656Z,2.30
2022-09-23T12:48:58.074Z,2.25
2022-09-23T12:51:29.035Z,2.20
2022-09-23T12:54:05.578Z,1.83
2022-09-23T12:56:38.653Z,2.10
2022-09-23T12:59:17.208Z,2.10
2022-09-23T13:01:44.699Z,2.10
2022-09-23T13:04:49.594Z,2.50
2022-09-23T13:07:21.952Z,1.80
2022-09-23T13:09:52.526Z,1.77
2022-09-23T13:12:31.073Z,2.05
2022-09-23T13:15:03.246Z,2.92
2022-09-23T13:17:37.270Z,1.58
2022-09-23T13:20:34.712Z,1.90
2022-09-23T13:23:26.129Z,1.33
2022-09-23T13:25:56.174Z,1.60
2022-09-23T13:28:27.415Z,2.00
2022-09-23T13:30:54.330Z,1.90
2022-09-23T13:33:38.750Z,1.77
2022-09-23T13:36:11.929Z,2.35
2022-09-23T13:38:38.461Z,1.40
2022-09-23T13:41:13.777Z,1.83
2022-09-23T13:43:45.987Z,2.00
2022-09-23T13:46:17.278Z,1.70
2022-09-23T13:48:46.194Z,1.60
2022-09-23T13:51:24.856Z,1.88
2022-09-23T13:53:54.293Z,1.67
2022-09-23T13:56:21.065Z,1.52
2022-09-23T13:58:48.782Z,1.67
2022-09-23T14:01:32.279Z,1.80
2022-09-23T14:03:59.966Z,1.48
2022-09-23T14:06:29.917Z,2.58
2022-09-23T14:08:59.754Z,1.35
2022-09-23T14:11:33.099Z,1.00
2022-09-23T14:14:06.625Z,1.70
2022-09-23T14:16:38.092Z,1.20
2022-09-23T14:19:06.380Z,1.40
2022-09-23T14:21:37.040Z,1.95
2022-09-23T14:24:18.830Z,0.80
2022-09-23T14:27:06.348Z,0.88
2022-09-23T14:29:41.511Z,0.93
2022-09-23T14:32:15.688Z,0.77
2022-09-23T14:34:51.111Z,0.60
2022-09-23T14:37:42.387Z,1.08
2022-09-23T14:40:13.430Z,0.80
2022-09-23T14:42:43.234Z,0.98
2022-09-23T14:45:15.395Z,1.08
2022-09-23T14:47:49.873Z,1.17
2022-09-23T14:50:38.909Z,1.05
2022-09-23T14:53:23.711Z,1.10
2022-09-23T14:55:58.744Z,0.90
2022-09-23T14:58:28.639Z,1.10
2022-09-23T15:01:00.637Z,1.00
2022-09-23T15:03:28.470Z,1.08
2022-09-23T15:06:08.346Z,1.30
2022-09-23T15:08:35.685Z,1.73
2022-09-23T15:11:08.120Z,1.13
2022-09-23T15:13:41.544Z,1.30
2022-09-23T15:16:08.302Z,1.00
2022-09-23T15:18:36.886Z,1.20
2022-09-23T15:21:10.086Z,1.10
2022-09-23T15:23:36.568Z,1.33
2022-09-23T15:26:09.660Z,1.15
2022-09-23T15:28:36.121Z,1.00
2022-09-23T15:31:05.644Z,1.00
2022-09-23T15:33:32.581Z,0.90
2022-09-23T15:35:59.012Z,0.90
2022-09-23T15:38:27.135Z,1.25
2022-09-23T15:40:54.241Z,1.42
2022-09-23T15:43:26.460Z,1.10
2022-09-23T15:45:53.243Z,1.60
2022-09-23T15:48:24.011Z,1.10
2022-09-23T15:50:51.423Z,1.20
2022-09-23T15:53:21.791Z,0.90
2022-09-23T15:55:51.374Z,1.15
2022-09-23T15:58:21.980Z,0.80
2022-09-23T16:00:55.919Z,1.20
2022-09-23T16:03:30.211Z,0.98
2022-09-23T16:06:01.017Z,0.93
2022-09-23T16:08:28.817Z,1.40
2022-09-23T16:10:55.673Z,1.63
2022-09-23T16:13:22.178Z,1.48
2022-09-23T16:15:48.712Z,1.35
2022-09-23T16:18:15.283Z,1.30
2022-09-23T16:20:44.632Z,1.40
2022-09-23T16:23:14.250Z,1.20
2022-09-23T16:25:40.804Z,1.13
2022-09-23T16:28:07.277Z,1.10
2022-09-23T16:30:34.485Z,1.10
2022-09-23T16:33:01.845Z,1.15
2022-09-23T16:35:32.664Z,6.85
2022-09-23T16:37:59.399Z,1.90
2022-09-23T16:40:26.017Z,1.50
2022-09-23T16:42:54.826Z,2.58
2022-09-23T16:45:23.165Z,1.45
2022-09-23T16:47:51.516Z,1.10
2022-09-23T16:50:20.708Z,1.40
2022-09-23T16:52:47.260Z,1.50
2022-09-23T16:55:15.058Z,1.33
2022-09-23T16:57:42.008Z,1.40
2022-09-23T17:00:32.239Z,1.52
2022-09-23T17:03:18.096Z,1.30
2022-09-23T17:05:46.800Z,1.52
2022-09-23T17:08:15.235Z,2.30
2022-09-23T17:10:43.318Z,1.90
2022-09-23T17:13:11.011Z,1.85
2022-09-23T17:15:41.391Z,2.13
2022-09-23T17:18:08.645Z,1.80
2022-09-23T17:20:36.103Z,2.58
2022-09-23T17:23:05.900Z,1.90
2022-09-23T17:25:33.929Z,1.75
2022-09-23T17:28:00.840Z,1.40
2022-09-23T17:30:27.555Z,1.67
2022-09-23T17:32:54.253Z,1.90
2022-09-23T17:35:20.751Z,1.73
2022-09-23T17:37:47.568Z,1.90
2022-09-23T17:40:14.324Z,1.90
2022-09-23T17:42:41.398Z,2.10
2022-09-23T17:45:12.422Z,2.00
2022-09-23T17:47:41.851Z,2.50
2022-09-23T17:50:08.668Z,2.17
2022-09-23T17:52:35.198Z,1.92
2022-09-23T17:55:01.796Z,2.10
2022-09-23T17:57:28.259Z,2.05
2022-09-23T17:59:56.033Z,2.75
2022-09-23T18:02:22.807Z,2.13
2022-09-23T18:04:49.687Z,2.00
2022-09-23T18:07:16.519Z,2.13
2022-09-23T18:09:43.011Z,2.30
2022-09-23T18:12:09.563Z,2.70
2022-09-23T18:14:36.108Z,2.15
2022-09-23T18:17:02.678Z,1.98
2022-09-23T18:19:29.327Z,2.40
2022-09-23T18:21:57.215Z,2.80
2022-09-23T18:24:33.029Z,2.67
2022-09-23T18:27:01.260Z,2.55
2022-09-23T18:29:28.070Z,2.97
2022-09-23T18:31:54.664Z,3.58
2022-09-23T18:34:21.290Z,3.22
2022-09-23T18:36:47.812Z,3.45
2022-09-23T18:39:15.107Z,3.85
2022-09-23T18:41:41.634Z,3.33
2022-09-23T18:44:08.349Z,3.72
2022-09-23T18:46:35.415Z,4.22
2022-09-23T18:49:20.679Z,4.93
2022-09-23T18:51:50.908Z,3.72
2022-09-23T18:54:18.298Z,4.47
2022-09-23T18:56:46.324Z,4.30
2022-09-23T18:59:16.612Z,5.05
2022-09-23T19:01:45.767Z,2.60
2022-09-23T19:04:14.095Z,3.00
2022-09-23T19:06:40.677Z,3.80
2022-09-23T19:09:08.064Z,3.17
2022-09-23T19:11:36.174Z,3.50
2022-09-23T19:14:05.640Z,3.30
2022-09-23T19:16:34.803Z,3.53
2022-09-23T19:19:02.579Z,4.50
2022-09-23T19:21:30.383Z,4.50
2022-09-23T19:24:05.695Z,4.53
2022-09-23T19:26:38.140Z,4.85
2022-09-23T19:29:06.240Z,3.55
2022-09-23T19:31:35.319Z,4.35
2022-09-23T19:34:05.923Z,4.35
2022-09-23T19:36:34.419Z,3.72
2022-09-23T19:39:04.225Z,3.72
2022-09-23T19:41:33.288Z,3.92
2022-09-23T19:44:07.033Z,3.85
2022-09-23T19:46:37.111Z,3.53
2022-09-23T19:49:05.555Z,3.40
2022-09-23T19:51:35.691Z,4.88
2022-09-23T19:54:04.496Z,3.65
2022-09-23T19:56:32.336Z,3.70
2022-09-23T19:59:00.034Z,3.70
2022-09-23T20:01:29.303Z,4.45
2022-09-23T20:03:56.250Z,3.47
2022-09-23T20:06:22.868Z,4.05
2022-09-23T20:08:49.807Z,4.32
2022-09-23T20:11:18.958Z,3.45
2022-09-23T20:13:49.908Z,3.15
2022-09-23T20:16:19.435Z,2.88
2022-09-23T20:18:47.042Z,3.58
2022-09-23T20:21:15.568Z,2.83
2022-09-23T20:23:42.590Z,3.15
2022-09-23T20:26:28.473Z,2.88
2022-09-23T20:28:55.247Z,3.10
2022-09-23T20:31:23.038Z,3.28
2022-09-23T20:33:53.643Z,2.70
2022-09-23T20:36:20.124Z,3.08
2022-09-23T20:38:46.640Z,3.55
2022-09-23T20:41:14.485Z,4.47
2022-09-23T20:43:41.602Z,3.70
2022-09-23T20:46:09.103Z,4.63
2022-09-23T20:48:35.601Z,4.20
2022-09-23T20:51:03.841Z,4.07
2022-09-23T20:53:31.792Z,3.70
2022-09-23T20:55:59.457Z,3.30
2022-09-23T20:58:27.659Z,4.28
2022-09-23T21:00:59.211Z,4.15
2022-09-23T21:03:26.542Z,4.00
2022-09-23T21:05:53.046Z,3.25
2022-09-23T21:08:19.870Z,4.03
2022-09-23T21:10:54.260Z,3.60
2022-09-23T21:13:20.811Z,3.45
2022-09-23T21:15:47.348Z,3.83
2022-09-23T21:18:17.131Z,3.40
2022-09-23T21:20:54.442Z,3.45
2022-09-23T21:23:25.070Z,3.25
2022-09-23T21:25:51.998Z,3.00
2022-09-23T21:28:19.009Z,2.90
2022-09-23T21:30:51.132Z,3.30
2022-09-23T21:33:18.362Z,3.85
2022-09-23T21:35:44.822Z,4.07
2022-09-23T21:38:11.301Z,3.13
2022-09-23T21:40:56.161Z,3.20
2022-09-23T21:43:23.681Z,3.50
2022-09-23T21:45:56.910Z,3.97
2022-09-23T21:48:24.246Z,3.83
2022-09-23T21:50:55.077Z,3.20
2022-09-23T21:53:23.624Z,3.42
2022-09-23T21:55:50.708Z,3.80
2022-09-23T21:58:17.315Z,3.78
2022-09-23T22:00:43.982Z,4.03
2022-09-23T22:03:11.987Z,4.00
2022-09-23T22:05:41.593Z,4.78
2022-09-23T22:08:09.125Z,3.90
2022-09-23T22:10:37.264Z,4.20
2022-09-23T22:13:08.141Z,4.10
2022-09-23T22:15:38.445Z,3.78
2022-09-23T22:18:05.388Z,4.03
2022-09-23T22:20:33.053Z,3.90
2022-09-23T22:22:59.629Z,4.00
2022-09-23T22:25:26.159Z,5.30
2022-09-23T22:28:11.030Z,5.13
2022-09-23T22:30:57.386Z,5.25
2022-09-23T22:33:23.963Z,4.82
2022-09-23T22:35:50.923Z,5.32
2022-09-23T22:38:18.946Z,5.57
2022-09-23T22:40:45.485Z,5.63
2022-09-23T22:43:12.088Z,6.32
2022-09-23T22:45:39.588Z,5.90
2022-09-23T22:48:06.090Z,5.28
2022-09-23T22:50:32.566Z,5.05
2022-09-23T22:52:59.599Z,5.22
2022-09-23T22:55:26.130Z,5.50
2022-09-23T22:57:52.617Z,5.22
2022-09-23T23:00:19.506Z,6.22
2022-09-23T23:02:46.345Z,6.38
2022-09-23T23:05:14.434Z,6.18
2022-09-23T23:07:41.381Z,6.35
2022-09-23T23:10:10.346Z,5.32
2022-09-23T23:12:37.137Z,5.75
2022-09-23T23:15:03.867Z,5.68
2022-09-23T23:17:30.357Z,6.40
2022-09-23T23:19:57.808Z,5.78
2022-09-23T23:22:27.175Z,5.57
2022-09-23T23:24:54.584Z,6.40
2022-09-23T23:27:21.135Z,5.78
2022-09-23T23:29:47.686Z,5.63
2022-09-23T23:32:14.195Z,6.70
2022-09-23T23:34:40.706Z,6.50
2022-09-23T23:37:07.470Z,7.32
2022-09-23T23:39:34.077Z,6.30
2022-09-23T23:42:00.771Z,6.20
2022-09-23T23:44:27.485Z,6.40
2022-09-23T23:46:54.914Z,6.13
2022-09-23T23:49:21.906Z,6.90
2022-09-23T23:51:48.893Z,7.32
2022-09-23T23:54:15.578Z,7.25
2022-09-23T23:56:42.427Z,6.15
2022-09-23T23:59:08.896Z,7.18
